Airfield :
LOGIN :

Register | Disclaimer

   EN    FR    IT 

 










Legend :    VFR   Marginal VFR   IFR   Intensive IFR   Very Intensive IFR
Visi :
Ceiling :
>= 8 km
>= 3000ft
5 to 8 km
1000 to 3000 ft
1500m to 5 km
500 to 1000 ft
800 to 1500m
200 to 500 ft
< 800m
< 200 ft
Symbols :   Thunderstorms  Fog  Heavy snow  Heavy precipitations  Wind > 20 kt
SIGMETs :     Misc.  Thunderstorms  Icing  Turbulence  Mountain Waves  Volcanic Ashes






- Airport Elevation : 68 ft
- IATA code : AGH


ESTA - Ängelholm-Helsingborg

CURRENT METAR :
  • 210620Z 14006KT 8000 BR OVC009 08/// Q1017

EXPIRED METARs :
  • 210550Z 14009KT 8000 BR OVC009 09/// Q1017
  • 210520Z 14010KT 8000 BR OVC009 08/// Q1017
  • 210450Z AUTO 14010KT 7000 BR OVC008/// ///// Q1017
  • 210420Z AUTO 14012KT 6000 BR OVC007/// ///// Q1017
  • 210350Z AUTO 14011KT 6000 BR OVC008/// ///// Q1017

TAF TAF ESTA
Valid from the 21 at 06:00 until the 21 at 15:00 UTC


210500Z 2106/2115 13010KT 7000 BKN008
TEMPO 2106/2115 2000 -RADZ BR BKN004



MET'MAP, your aeronautical weather chart ! - Copyright ORBIFLY December 2007 - Disclaimer

ORBIFLY MET'MAP TEAM :

Programming & Development : Alexandra Zaïnal
Concept & Development : Baudouin d'Aumeries
Co-Development & Prog : Marc-Olivier Méhu
Technical & hardware support : Manuel Goepfert

Contact : metmap@orbifly.com




SOURCES & CREDITS :

   NOAA